Language selection

My Weather Profile Weather Topics  | 

Dixon Entrance East: Past 24 Hour Conditions

 

Sandspit Airport

08:00 AM PDT 27 September 2021
Disclaimer

This table is a summary of hourly weather conditions for the past 24 hours.
Please note that these observations might not always be representative of weather conditions over their associated marine area.

Date / Time
(PDT)
Wind(knots) Conditions Visibility(km) Pressure(kPa) Air tempC) Relative humidity(%) Dew pointC)
27 September 2021
8:00 SE 14 Mist 8 98.6 12 96 11
7:00 ESE 17 Light Rain 5 98.5 12 95 11
6:00 ESE 19 Light Rain 5 98.6 12 96 11
5:00 SE 19 gust 24 Mist 8 98.6 12 94 11
4:00 SE 18 gust 24 Light Rain 8 98.6 12 95 11
3:00 E 15 Rain 5 98.7 11 96 11
2:00 ESE 18 Cloudy 16 98.7 11 93 10
1:00 E 18 Cloudy 16 98.7 11 91 9
0:00 SE 15 Cloudy 15 98.6 11 92 10
26 September 2021
23:00 SE 14 gust 19 Cloudy 13 98.6 12 93 10
22:00 SSE 12 Mist 6 98.7 11 96 11
21:00 SSE 11 gust 18 Mist 8 98.7 12 94 11
20:00 SSE 19 Mainly Clear 15 98.8 12 86 9
19:00 SSE 28 gust 34 Mist 8 98.9 12 94 11
18:00 SSE 23 gust 31 Mist 8 98.9 12 95 12
17:00 SE 25 gust 31 Light Rain 4 99.0 12 96 12
16:00 SE 24 gust 35 Light Rain 4 99.1 12 97 12
15:00 SE 19 gust 27 Rain 4 99.3 12 96 11
14:00 SE 27 gust 41 Light Rain 6 99.3 12 95 11
13:00 SE 26 gust 31 Light Rain 8 99.4 12 94 11
12:00 SE 21 gust 26 Light Rain 16 99.6 11 91 10
11:00 SE 21 Cloudy 16 99.6 11 88 9
10:00 SE 13 Cloudy 16 99.6 10 85 8
9:00 SSE 5 Mostly Cloudy 16 99.7 8 90 7
8:00 S 2 Mainly Sunny 16 99.7 6 95 5

Zoom-in to make a selection

Map of Pacific - North Coast marine weather areas Middle Nomad - 46004 South Nomad - 46036 Dixon Entrance Central - 46145 South Moresby - 46147 Nanakwa Shoal - 46181 North Hecate Strait - 46183 North Nomad - 46184 South Hecate Strait - 46185 West Sea Otter - 46204 West Dixon Entrance - 46205 East Dellwood - 46207 West Moresby - 46208 Sartine Island Cape St.James Kindakun Rocks Langara Island Masset Municipal Airport Rose Spit Sandspit Airport Bella Bella Airport Bella Coola Airport Bonilla Island Cathedral Point Cumshewa Island Grey Islet Holland Rock Lucy Islands Lightstation Prince Rupert Airport
Legend:
buoy Buoy
land station Land Station

Pacific - North Coast Area

Another Region

What we are doing

Date modified: